Decoded Metar for KLPC (LOMPOC in CA, USA) (IATA:LPC) | Meteo·Mobile Aviation Weather
aviador You're here:

KLPC Decoded Metar

LOMPOC in CA, USA
Report Time2019-07-21 15:56:00
UTC Time2019-07-21 16:52:09
Flight Rules ifr IFR
WindCalm
Visibility9999 m
Phenomena:N/A
Clouds:Overcast 006 Hf
Expected CloudBase > 800 ft AGL from Temp-Dew spread
Ceiling600 ft
Temp15°C (ISA 0)
Dew Point13°C (88% RH)
QNH1015 hPa
Density Alt243 ft
Elevation89 ft
Report Wrong Elevation
Raw Report
KLPC 211556Z AUTO 00000KT 10SM OVC006 15/13 A2997 RMK AO2 SLP148
T01500128=

Extra information for KLPC:More info

Metar Taf Metar & Taf Last 4 Metars F.Rules Stats Wind Profile Meteogram Temp Stats Airport Information Weather charts Add Link Nearby VenuesMetar ALERT Operation Metar Decoded Social comments

AIRNAV info for KLPC